createdAt,value
2022-10-12T00:01:43.318Z,42.55
2022-10-12T00:03:47.393Z,36.40
2022-10-12T00:06:01.728Z,33.92
2022-10-12T00:08:04.337Z,35.38
2022-10-12T00:10:07.506Z,32.13
2022-10-12T00:12:10.133Z,35.40
2022-10-12T00:14:12.718Z,33.13
2022-10-12T00:16:17.806Z,34.58
2022-10-12T00:18:20.431Z,38.15
2022-10-12T00:20:24.363Z,44.97
2022-10-12T00:22:26.936Z,39.80
2022-10-12T00:24:29.526Z,39.20
2022-10-12T00:26:33.928Z,38.45
2022-10-12T00:28:37.415Z,36.30
2022-10-12T00:30:41.143Z,37.05
2022-10-12T00:32:43.785Z,43.45
2022-10-12T00:34:46.397Z,37.63
2022-10-12T00:36:50.409Z,35.40
2022-10-12T00:38:54.313Z,27.17
2022-10-12T00:40:56.868Z,37.50
2022-10-12T00:42:59.456Z,37.53
2022-10-12T00:45:02.063Z,42.42
2022-10-12T00:47:08.809Z,35.97
2022-10-12T00:49:16.347Z,41.50
2022-10-12T00:51:20.210Z,37.88
2022-10-12T00:53:27.561Z,35.53
2022-10-12T00:55:35.897Z,30.42
2022-10-12T00:57:42.124Z,37.30
2022-10-12T00:59:51.468Z,34.50
2022-10-12T01:01:54.381Z,30.23
2022-10-12T01:03:57.023Z,36.92
2022-10-12T01:06:00.381Z,33.35
2022-10-12T01:08:03.187Z,31.83
2022-10-12T01:10:08.322Z,32.03
2022-10-12T01:12:12.091Z,30.10
2022-10-12T01:14:14.996Z,34.80
2022-10-12T01:16:23.321Z,35.83
2022-10-12T01:18:34.382Z,34.40
2022-10-12T01:20:46.677Z,47.22
2022-10-12T01:22:57.349Z,36.95
2022-10-12T01:25:16.153Z,37.28
2022-10-12T01:27:29.961Z,32.10
2022-10-12T01:30:03.543Z,36.03
2022-10-12T01:32:13.456Z,42.67
2022-10-12T01:34:28.833Z,37.63
2022-10-12T01:36:36.963Z,37.72
2022-10-12T01:38:49.608Z,36.03
2022-10-12T01:40:58.467Z,30.15
2022-10-12T01:43:02.151Z,33.80
2022-10-12T01:45:09.665Z,30.45
2022-10-12T01:47:12.520Z,34.03
2022-10-12T01:49:18.019Z,29.45
2022-10-12T01:51:30.530Z,30.17
2022-10-12T01:53:40.197Z,33.10
2022-10-12T01:55:50.491Z,30.65
2022-10-12T01:58:03.765Z,46.88
2022-10-12T02:00:10.398Z,45.65
2022-10-12T02:02:20.686Z,50.03
2022-10-12T02:04:34.062Z,50.70
2022-10-12T02:06:41.800Z,45.83
2022-10-12T02:08:51.295Z,54.55
2022-10-12T02:11:00.001Z,49.60
2022-10-12T02:13:06.622Z,53.55
2022-10-12T02:15:13.979Z,52.38
2022-10-12T02:17:19.564Z,47.67
2022-10-12T02:19:27.382Z,51.47
2022-10-12T02:21:33.774Z,52.85
2022-10-12T02:23:37.937Z,53.05
2022-10-12T02:25:41.857Z,47.60
2022-10-12T02:27:47.846Z,48.25
2022-10-12T02:29:50.907Z,58.45
2022-10-12T02:32:03.414Z,52.22
2022-10-12T02:34:11.594Z,67.30
2022-10-12T02:36:17.577Z,54.33
2022-10-12T02:38:23.211Z,50.33
2022-10-12T02:40:32.947Z,47.22
2022-10-12T02:43:05.609Z,50.95
2022-10-12T02:45:06.065Z,51.58
2022-10-12T02:47:12.558Z,53.85
2022-10-12T02:49:16.714Z,54.45
2022-10-12T02:51:21.279Z,53.28
2022-10-12T02:53:25.380Z,50.17
2022-10-12T02:55:28.102Z,53.78
2022-10-12T02:57:30.686Z,49.95
2022-10-12T02:59:33.328Z,47.95
2022-10-12T03:01:35.971Z,53.67
2022-10-12T03:03:40.483Z,54.08
2022-10-12T03:05:43.094Z,53.05
2022-10-12T03:07:45.695Z,57.40
2022-10-12T03:09:48.261Z,60.50
2022-10-12T03:11:50.852Z,57.53
2022-10-12T03:13:53.641Z,57.58
2022-10-12T03:16:02.380Z,58.60
2022-10-12T03:18:05.212Z,64.93
2022-10-12T03:20:10.174Z,66.15
2022-10-12T03:22:12.745Z,67.85
2022-10-12T03:24:15.323Z,73.50
2022-10-12T03:26:17.953Z,73.47
2022-10-12T03:28:20.814Z,70.60
2022-10-12T03:30:23.471Z,75.28
2022-10-12T03:32:26.260Z,74.03
2022-10-12T03:34:28.871Z,61.47
2022-10-12T03:36:32.823Z,59.28
2022-10-12T03:38:35.415Z,58.03
2022-10-12T03:40:38.873Z,64.82
2022-10-12T03:42:41.455Z,56.40
2022-10-12T03:44:44.082Z,57.85
2022-10-12T03:46:46.680Z,68.90
2022-10-12T03:48:49.256Z,62.35
2022-10-12T03:50:53.016Z,71.35
2022-10-12T03:52:56.970Z,64.38
2022-10-12T03:54:59.549Z,70.50
2022-10-12T03:57:02.182Z,70.40
2022-10-12T03:59:05.114Z,62.95
2022-10-12T04:01:07.732Z,64.80
2022-10-12T04:03:10.316Z,58.38
2022-10-12T04:05:12.952Z,59.45
2022-10-12T04:07:15.555Z,61.20
2022-10-12T04:09:19.490Z,56.30
2022-10-12T04:11:22.102Z,53.80
2022-10-12T04:13:24.718Z,57.20
2022-10-12T04:15:27.387Z,49.92
2022-10-12T04:17:29.963Z,51.55
2022-10-12T04:19:32.612Z,47.85
2022-10-12T04:21:35.159Z,46.65
2022-10-12T04:23:37.748Z,43.28
2022-10-12T04:25:42.519Z,50.70
2022-10-12T04:27:45.414Z,47.17
2022-10-12T04:29:48.060Z,47.60
2022-10-12T04:31:50.673Z,46.20
2022-10-12T04:33:56.720Z,54.35
2022-10-12T04:35:59.319Z,48.17
2022-10-12T04:38:01.987Z,45.25
2022-10-12T04:40:05.161Z,49.03
2022-10-12T04:42:09.067Z,49.92
2022-10-12T04:44:11.691Z,48.03
2022-10-12T04:46:14.310Z,52.00
2022-10-12T04:48:16.903Z,51.70
2022-10-12T04:50:19.803Z,50.03
2022-10-12T04:52:22.391Z,44.63
2022-10-12T04:54:25.021Z,48.85
2022-10-12T04:56:27.703Z,53.40
2022-10-12T04:58:31.793Z,46.10
2022-10-12T05:00:34.456Z,43.40
2022-10-12T05:02:37.022Z,48.55
2022-10-12T05:04:39.639Z,47.33
2022-10-12T05:06:42.306Z,46.58
2022-10-12T05:08:44.874Z,45.95
2022-10-12T05:10:47.538Z,40.33
2022-10-12T05:12:50.130Z,41.95
2022-10-12T05:14:54.094Z,44.45
2022-10-12T05:16:56.708Z,53.13
2022-10-12T05:18:59.273Z,49.85
2022-10-12T05:21:01.858Z,50.13
2022-10-12T05:23:05.195Z,50.10
2022-10-12T05:25:09.151Z,47.42
2022-10-12T05:27:11.743Z,44.00
2022-10-12T05:29:14.338Z,51.58
2022-10-12T05:31:18.253Z,49.97
2022-10-12T05:33:21.230Z,49.65
2022-10-12T05:35:23.871Z,45.78
2022-10-12T05:37:26.571Z,41.72
2022-10-12T05:39:29.214Z,48.53
2022-10-12T05:41:31.831Z,48.83
2022-10-12T05:43:34.424Z,45.13
2022-10-12T05:45:37.148Z,52.58
2022-10-12T05:47:41.526Z,49.70
2022-10-12T05:49:44.229Z,52.05
2022-10-12T05:51:46.801Z,45.85
2022-10-12T05:53:49.363Z,51.28
2022-10-12T05:55:55.753Z,49.33
2022-10-12T05:57:58.295Z,54.05
2022-10-12T06:00:00.915Z,51.83
2022-10-12T06:02:03.608Z,50.30
2022-10-12T06:04:07.523Z,49.88
2022-10-12T06:06:11.277Z,52.08
2022-10-12T06:08:14.479Z,60.20
2022-10-12T06:10:17.052Z,47.47
2022-10-12T06:12:20.135Z,49.47
2022-10-12T06:14:22.781Z,51.28
2022-10-12T06:16:25.441Z,46.45
2022-10-12T06:18:28.050Z,51.65
2022-10-12T06:20:32.011Z,59.22
2022-10-12T06:22:35.288Z,53.78
2022-10-12T06:24:38.360Z,53.17
2022-10-12T06:26:41.012Z,56.10
2022-10-12T06:28:44.276Z,55.78
2022-10-12T06:30:47.585Z,59.05
2022-10-12T06:32:50.149Z,59.40
2022-10-12T06:34:52.717Z,52.67
2022-10-12T06:37:00.947Z,60.53
2022-10-12T06:39:04.707Z,57.15
2022-10-12T06:41:07.284Z,51.17
2022-10-12T06:43:10.291Z,49.28
2022-10-12T06:45:13.386Z,57.05
2022-10-12T06:47:16.445Z,55.78
2022-10-12T06:49:19.148Z,51.90
2022-10-12T06:51:21.725Z,49.53
2022-10-12T06:53:31.100Z,57.58
2022-10-12T06:55:33.784Z,53.50
2022-10-12T06:57:37.176Z,56.88
2022-10-12T06:59:40.105Z,49.90
2022-10-12T07:01:42.702Z,58.00
2022-10-12T07:03:45.338Z,51.70
2022-10-12T07:05:47.939Z,51.08
2022-10-12T07:07:50.565Z,49.65
2022-10-12T07:09:54.509Z,51.83
2022-10-12T07:11:57.114Z,47.72
2022-10-12T07:13:59.834Z,52.05
2022-10-12T07:16:02.450Z,50.50
2022-10-12T07:18:05.204Z,46.38
2022-10-12T07:20:08.573Z,46.00
2022-10-12T07:22:11.704Z,49.97
2022-10-12T07:24:14.393Z,45.88
2022-10-12T07:26:18.336Z,45.60
2022-10-12T07:28:22.368Z,44.55
2022-10-12T07:30:24.980Z,47.60
2022-10-12T07:32:27.646Z,45.42
2022-10-12T07:34:31.184Z,43.55
2022-10-12T07:36:54.590Z,44.63
2022-10-12T07:38:56.407Z,39.35
2022-10-12T07:41:01.154Z,37.10
2022-10-12T07:43:15.653Z,38.97
2022-10-12T07:45:19.448Z,35.92
2022-10-12T07:47:22.069Z,34.30
2022-10-12T07:49:24.739Z,35.13
2022-10-12T07:51:27.310Z,31.15
2022-10-12T07:53:34.170Z,28.80
2022-10-12T07:55:36.725Z,26.77
2022-10-12T07:57:39.668Z,25.55
2022-10-12T07:59:43.844Z,31.33
2022-10-12T08:01:46.617Z,33.10
2022-10-12T08:03:49.923Z,26.50
2022-10-12T08:05:52.501Z,22.88
2022-10-12T08:07:55.799Z,32.40
2022-10-12T08:09:58.357Z,22.30
2022-10-12T08:12:01.118Z,25.42
2022-10-12T08:14:03.667Z,27.52
2022-10-12T08:16:12.601Z,25.42
2022-10-12T08:18:15.177Z,23.48
2022-10-12T08:20:17.858Z,27.17
2022-10-12T08:22:20.415Z,21.58
2022-10-12T08:24:22.947Z,29.10
2022-10-12T08:26:25.562Z,21.63
2022-10-12T08:28:28.367Z,23.23
2022-10-12T08:30:31.807Z,20.42
2022-10-12T08:32:37.977Z,26.23
2022-10-12T08:34:40.501Z,19.65
2022-10-12T08:36:43.134Z,21.17
2022-10-12T08:38:48.590Z,22.88
2022-10-12T08:40:57.278Z,19.15
2022-10-12T08:43:07.386Z,20.27
2022-10-12T08:45:39.082Z,19.35
2022-10-12T08:47:47.752Z,18.33
2022-10-12T08:49:52.202Z,15.07
2022-10-12T08:51:57.951Z,19.23
2022-10-12T08:54:04.813Z,19.67
2022-10-12T08:56:09.106Z,19.48
2022-10-12T08:58:17.384Z,19.70
2022-10-12T09:00:20.628Z,18.73
2022-10-12T09:02:39.161Z,16.88
2022-10-12T09:04:54.927Z,16.80
2022-10-12T09:07:02.253Z,17.80
2022-10-12T09:09:19.067Z,20.08
2022-10-12T09:11:34.290Z,17.38
2022-10-12T09:13:47.816Z,18.10
2022-10-12T09:15:53.698Z,13.90
2022-10-12T09:17:58.768Z,19.90
2022-10-12T09:20:08.225Z,18.63
2022-10-12T09:22:19.013Z,14.07
2022-10-12T09:24:25.105Z,16.23
2022-10-12T09:26:35.571Z,17.83
2022-10-12T09:28:43.219Z,14.65
2022-10-12T09:30:59.851Z,13.63
2022-10-12T09:33:14.568Z,13.35
2022-10-12T09:35:18.789Z,14.68
2022-10-12T09:37:24.111Z,14.40
2022-10-12T09:39:31.853Z,12.73
2022-10-12T09:41:37.403Z,18.02
2022-10-12T09:43:40.824Z,10.77
2022-10-12T09:45:43.644Z,13.93
2022-10-12T09:48:10.848Z,10.60
2022-10-12T09:50:13.463Z,10.98
2022-10-12T09:52:20.475Z,14.50
2022-10-12T09:54:28.259Z,13.15
2022-10-12T09:56:39.693Z,12.25
2022-10-12T09:58:50.408Z,14.32
2022-10-12T10:01:12.819Z,19.92
2022-10-12T10:03:30.610Z,14.23
2022-10-12T10:05:36.191Z,13.35
2022-10-12T10:07:40.141Z,18.85
2022-10-12T10:09:42.777Z,16.73
2022-10-12T10:11:45.441Z,13.32
2022-10-12T10:13:53.122Z,14.93
2022-10-12T10:16:04.932Z,10.75
2022-10-12T10:20:30.834Z,15.73
2022-10-12T10:22:34.004Z,17.40
2022-10-12T10:24:38.082Z,16.08
2022-10-12T10:26:57.295Z,13.75
2022-10-12T10:29:18.136Z,12.88
2022-10-12T10:31:25.731Z,11.90
2022-10-12T10:33:28.540Z,14.32
2022-10-12T10:35:31.212Z,15.35
2022-10-12T10:37:34.803Z,15.02
2022-10-12T10:39:46.951Z,10.80
2022-10-12T10:41:50.818Z,13.38
2022-10-12T10:43:53.447Z,14.35
2022-10-12T10:45:58.185Z,16.25
2022-10-12T10:48:09.338Z,20.20
2022-10-12T10:50:26.893Z,17.20
2022-10-12T10:52:31.589Z,16.40
2022-10-12T10:54:36.422Z,21.95
2022-10-12T10:56:41.218Z,15.55
2022-10-12T10:58:49.404Z,18.83
2022-10-12T11:00:54.309Z,19.75
2022-10-12T11:02:59.326Z,15.65
2022-10-12T11:05:08.920Z,19.25
2022-10-12T11:07:21.306Z,14.48
2022-10-12T11:09:29.920Z,14.48
2022-10-12T11:11:34.707Z,13.60
2022-10-12T11:13:42.447Z,13.43
2022-10-12T11:15:49.603Z,14.93
2022-10-12T11:17:58.978Z,14.65
2022-10-12T11:20:20.068Z,12.00
2022-10-12T11:22:26.613Z,16.23
2022-10-12T11:24:34.419Z,15.13
2022-10-12T11:26:41.035Z,17.63
2022-10-12T11:28:45.258Z,15.85
2022-10-12T11:30:51.623Z,13.70
2022-10-12T11:32:57.251Z,13.90
2022-10-12T11:35:03.250Z,13.82
2022-10-12T11:37:19.737Z,21.88
2022-10-12T11:39:31.789Z,17.98
2022-10-12T11:42:03.147Z,18.98
2022-10-12T11:44:17.551Z,19.52
2022-10-12T11:48:31.005Z,17.02
2022-10-12T11:50:38.233Z,18.05
2022-10-12T11:52:45.579Z,14.25
2022-10-12T11:54:54.878Z,20.92
2022-10-12T11:57:02.883Z,12.77
2022-10-12T11:59:18.144Z,20.85
2022-10-12T12:01:33.706Z,15.90
2022-10-12T12:04:17.133Z,18.65
2022-10-12T12:06:48.429Z,16.70
2022-10-12T12:08:58.056Z,17.10
2022-10-12T12:11:07.110Z,16.67
2022-10-12T12:13:21.013Z,19.85
2022-10-12T12:15:25.031Z,20.70
2022-10-12T12:17:32.169Z,19.58
2022-10-12T12:19:39.999Z,16.27
2022-10-12T12:22:26.452Z,25.05
2022-10-12T12:24:29.253Z,20.83
2022-10-12T12:26:32.023Z,26.95
2022-10-12T12:28:35.336Z,21.42
2022-10-12T12:30:41.493Z,22.45
2022-10-12T12:32:49.022Z,20.15
2022-10-12T12:35:00.269Z,17.83
2022-10-12T12:39:24.000Z,26.27
2022-10-12T12:43:54.881Z,22.35
2022-10-12T12:46:00.626Z,23.80
2022-10-12T12:50:35.627Z,23.25
2022-10-12T12:52:41.126Z,19.13
2022-10-12T12:54:55.963Z,20.92
2022-10-12T12:57:18.348Z,19.67
2022-10-12T12:59:50.133Z,25.58
2022-10-12T13:02:16.772Z,21.70
2022-10-12T13:04:42.267Z,22.45
2022-10-12T13:07:19.105Z,22.13
2022-10-12T13:09:36.840Z,23.33
2022-10-12T13:11:59.343Z,21.30
2022-10-12T13:14:14.545Z,23.98
2022-10-12T13:19:03.531Z,20.17
2022-10-12T13:21:07.702Z,21.80
2022-10-12T13:23:17.119Z,23.88
2022-10-12T13:25:28.562Z,24.55
2022-10-12T13:27:35.641Z,21.05
2022-10-12T13:29:44.535Z,19.90
2022-10-12T13:31:49.579Z,22.60
2022-10-12T13:34:01.630Z,18.17
2022-10-12T13:36:08.886Z,20.42
2022-10-12T13:38:22.446Z,21.92
2022-10-12T13:40:29.202Z,19.02
2022-10-12T13:42:35.517Z,19.55
2022-10-12T13:44:38.563Z,18.83
2022-10-12T13:46:43.207Z,19.20
2022-10-12T13:49:04.677Z,23.27
2022-10-12T13:51:25.826Z,16.42
2022-10-12T13:53:36.204Z,21.38
2022-10-12T13:55:38.935Z,25.23
2022-10-12T13:57:43.235Z,20.60
2022-10-12T13:59:47.563Z,21.20
2022-10-12T14:01:52.857Z,23.55
2022-10-12T14:04:04.408Z,18.90
2022-10-12T14:06:27.171Z,21.08
2022-10-12T14:08:32.369Z,14.45
2022-10-12T14:10:37.894Z,22.92
2022-10-12T14:12:41.329Z,28.20
2022-10-12T14:14:47.251Z,15.93
2022-10-12T14:16:51.865Z,18.40
2022-10-12T14:18:54.622Z,24.08
2022-10-12T14:21:06.819Z,17.95
2022-10-12T14:23:15.595Z,16.80
2022-10-12T14:25:20.406Z,14.70
2022-10-12T14:27:25.841Z,16.75
2022-10-12T14:29:34.272Z,18.63
2022-10-12T14:31:53.003Z,24.45
2022-10-12T14:33:55.947Z,19.60
2022-10-12T14:36:14.072Z,17.10
2022-10-12T14:38:40.178Z,20.63
2022-10-12T14:40:42.751Z,18.52
2022-10-12T14:42:55.385Z,16.02
2022-10-12T14:44:58.432Z,16.33
2022-10-12T14:47:05.678Z,14.55
2022-10-12T14:49:16.735Z,18.95
2022-10-12T14:51:19.348Z,17.27
2022-10-12T14:53:22.451Z,18.45
2022-10-12T14:55:28.432Z,21.92
2022-10-12T14:57:32.718Z,16.73
2022-10-12T14:59:35.416Z,17.27
2022-10-12T15:01:41.062Z,17.45
2022-10-12T15:03:45.113Z,24.38
2022-10-12T15:05:47.736Z,17.23
2022-10-12T15:07:50.931Z,16.15
2022-10-12T15:09:54.358Z,16.60
2022-10-12T15:11:58.307Z,22.08
2022-10-12T15:14:00.893Z,16.27
2022-10-12T15:16:03.650Z,18.33
2022-10-12T15:18:06.634Z,15.13
2022-10-12T15:20:10.867Z,23.33
2022-10-12T15:22:16.692Z,21.15
2022-10-12T15:24:19.419Z,26.70
2022-10-12T15:26:22.493Z,19.33
2022-10-12T15:28:27.800Z,19.45
2022-10-12T15:30:30.628Z,16.42
2022-10-12T15:32:33.194Z,20.98
2022-10-12T15:34:35.859Z,20.52
2022-10-12T15:36:38.425Z,24.75
2022-10-12T15:38:41.088Z,45.30
2022-10-12T15:40:46.032Z,43.38
2022-10-12T15:42:49.072Z,28.98
2022-10-12T15:44:52.987Z,18.27
2022-10-12T15:47:00.567Z,15.98
2022-10-12T15:49:03.196Z,21.00
2022-10-12T15:51:10.051Z,20.83
2022-10-12T15:53:15.763Z,15.68
2022-10-12T15:55:20.504Z,15.68
2022-10-12T15:57:23.100Z,18.77
2022-10-12T15:59:25.655Z,19.73
2022-10-12T16:01:29.747Z,17.77
2022-10-12T16:03:32.811Z,21.30
2022-10-12T16:05:37.829Z,17.13
2022-10-12T16:07:40.391Z,14.80
2022-10-12T16:09:43.044Z,27.65
2022-10-12T16:11:45.782Z,19.17
2022-10-12T16:13:55.501Z,18.45
2022-10-12T16:15:59.173Z,16.70
2022-10-12T16:18:05.006Z,17.30
2022-10-12T16:20:09.140Z,14.40
2022-10-12T16:22:11.833Z,20.67
2022-10-12T16:24:14.406Z,19.25
2022-10-12T16:26:17.137Z,20.40
2022-10-12T16:28:20.080Z,18.42
2022-10-12T16:30:23.449Z,21.58
2022-10-12T16:32:26.001Z,18.48
2022-10-12T16:34:32.285Z,19.52
2022-10-12T16:36:34.993Z,15.40
2022-10-12T16:38:37.726Z,17.73
2022-10-12T16:40:40.492Z,22.38
2022-10-12T16:42:43.505Z,23.30
2022-10-12T16:44:46.675Z,24.00
2022-10-12T16:46:49.464Z,18.48
2022-10-12T16:48:52.085Z,19.48
2022-10-12T16:50:57.156Z,21.88
2022-10-12T16:52:59.821Z,20.02
2022-10-12T16:55:02.474Z,16.90
2022-10-12T16:57:05.947Z,16.38
2022-10-12T16:59:08.555Z,18.95
2022-10-12T17:01:12.022Z,20.55
2022-10-12T17:03:14.626Z,19.17
2022-10-12T17:05:17.217Z,17.67
2022-10-12T17:07:21.136Z,14.60
2022-10-12T17:09:23.687Z,22.30
2022-10-12T17:11:26.311Z,22.52
2022-10-12T17:13:32.723Z,16.00
2022-10-12T17:15:35.302Z,13.27
2022-10-12T17:17:37.885Z,21.48
2022-10-12T17:19:40.864Z,17.98
2022-10-12T17:21:43.787Z,22.75
2022-10-12T17:23:47.704Z,28.17
2022-10-12T17:25:50.286Z,37.70
2022-10-12T17:27:52.896Z,26.83
2022-10-12T17:29:55.739Z,19.25
2022-10-12T17:31:59.027Z,13.70
2022-10-12T17:34:02.014Z,16.38
2022-10-12T17:36:06.639Z,24.42
2022-10-12T17:38:09.193Z,16.45
2022-10-12T17:40:13.228Z,20.23
2022-10-12T17:42:16.497Z,20.23
2022-10-12T17:44:19.826Z,21.27
2022-10-12T17:46:23.329Z,26.55
2022-10-12T17:48:25.922Z,23.85
2022-10-12T17:50:28.525Z,23.73
2022-10-12T17:52:31.087Z,14.45
2022-10-12T17:54:33.648Z,24.50
2022-10-12T17:56:37.604Z,19.92
2022-10-12T17:58:40.255Z,18.35
2022-10-12T18:00:42.875Z,21.08
2022-10-12T18:02:46.465Z,18.50
2022-10-12T18:04:49.054Z,21.80
2022-10-12T18:06:51.693Z,20.83
2022-10-12T18:08:55.081Z,24.75
2022-10-12T18:10:59.394Z,26.00
2022-10-12T18:13:03.317Z,19.50
2022-10-12T18:15:07.463Z,18.90
2022-10-12T18:17:10.020Z,24.50
2022-10-12T18:19:13.028Z,24.10
2022-10-12T18:21:15.585Z,28.17
2022-10-12T18:23:18.515Z,17.52
2022-10-12T18:25:21.128Z,17.55
2022-10-12T18:27:24.018Z,24.73
2022-10-12T18:29:27.933Z,20.45
2022-10-12T18:31:33.253Z,18.35
2022-10-12T18:33:36.429Z,23.33
2022-10-12T18:35:39.035Z,22.15
2022-10-12T18:37:41.779Z,32.42
2022-10-12T18:39:44.346Z,24.10
2022-10-12T18:41:51.497Z,26.80
2022-10-12T18:43:58.167Z,26.48
2022-10-12T18:46:05.848Z,27.08
2022-10-12T18:48:08.436Z,26.38
2022-10-12T18:50:11.251Z,24.38
2022-10-12T18:52:13.910Z,33.55
2022-10-12T18:54:17.424Z,24.67
2022-10-12T18:56:20.955Z,22.48
2022-10-12T18:58:23.521Z,27.65
2022-10-12T19:00:27.028Z,33.17
2022-10-12T19:02:31.511Z,27.10
2022-10-12T19:04:35.224Z,26.88
2022-10-12T19:06:42.258Z,35.40
2022-10-12T19:08:45.231Z,27.20
2022-10-12T19:10:47.817Z,36.03
2022-10-12T19:12:50.526Z,34.08
2022-10-12T19:14:53.134Z,27.33
2022-10-12T19:16:55.686Z,26.88
2022-10-12T19:19:01.513Z,34.47
2022-10-12T19:21:06.066Z,24.67
2022-10-12T19:23:08.706Z,31.75
2022-10-12T19:25:11.302Z,33.63
2022-10-12T19:27:14.150Z,28.35
2022-10-12T19:29:17.075Z,33.30
2022-10-12T19:31:22.495Z,29.90
2022-10-12T19:33:25.410Z,34.90
2022-10-12T19:35:29.355Z,28.90
2022-10-12T19:37:31.915Z,33.88
2022-10-12T19:39:36.232Z,32.00
2022-10-12T19:41:39.438Z,38.60
2022-10-12T19:43:43.027Z,32.13
2022-10-12T19:45:45.599Z,32.58
2022-10-12T19:47:48.162Z,30.30
2022-10-12T19:49:50.755Z,34.05
2022-10-12T19:51:55.400Z,38.03
2022-10-12T19:53:59.348Z,35.42
2022-10-12T19:56:02.719Z,35.47
2022-10-12T19:58:05.996Z,33.42
2022-10-12T20:00:09.993Z,35.33
2022-10-12T20:02:12.670Z,35.85
2022-10-12T20:04:15.796Z,36.33
2022-10-12T20:06:18.680Z,34.45
2022-10-12T20:08:22.648Z,30.48
2022-10-12T20:10:25.269Z,35.63
2022-10-12T20:12:27.805Z,32.13
2022-10-12T20:14:30.709Z,30.83
2022-10-12T20:16:35.158Z,36.33
2022-10-12T20:18:38.177Z,34.00
2022-10-12T20:20:42.784Z,29.17
2022-10-12T20:22:45.353Z,33.00
2022-10-12T20:24:49.262Z,27.92
2022-10-12T20:26:51.863Z,31.40
2022-10-12T20:28:55.740Z,34.97
2022-10-12T20:31:00.131Z,31.17
2022-10-12T20:33:04.538Z,25.25
2022-10-12T20:35:07.892Z,33.45
2022-10-12T20:37:11.371Z,28.27
2022-10-12T20:39:14.350Z,35.55
2022-10-12T20:41:18.645Z,32.55
2022-10-12T20:43:21.330Z,35.60
2022-10-12T20:45:23.940Z,29.48
2022-10-12T20:47:27.427Z,33.75
2022-10-12T20:49:30.136Z,27.67
2022-10-12T20:51:35.761Z,32.47
2022-10-12T20:53:38.666Z,49.92
2022-10-12T20:55:41.450Z,44.10
2022-10-12T20:57:45.392Z,36.95
2022-10-12T20:59:51.124Z,45.30
2022-10-12T21:01:53.728Z,37.97
2022-10-12T21:03:56.722Z,30.17
2022-10-12T21:06:03.258Z,34.30
2022-10-12T21:08:06.044Z,32.70
2022-10-12T21:10:09.704Z,29.08
2022-10-12T21:12:12.634Z,48.60
2022-10-12T21:14:16.607Z,48.00
2022-10-12T21:16:19.699Z,52.75
2022-10-12T21:18:22.956Z,38.70
2022-10-12T21:20:25.677Z,29.05
2022-10-12T21:22:28.239Z,24.40
2022-10-12T21:24:30.909Z,29.58
2022-10-12T21:26:33.546Z,25.83
2022-10-12T21:28:36.143Z,31.10
2022-10-12T21:30:40.563Z,40.83
2022-10-12T21:32:43.137Z,29.10
2022-10-12T21:34:47.407Z,27.63
2022-10-12T21:36:49.997Z,21.38
2022-10-12T21:38:52.897Z,33.38
2022-10-12T21:40:55.517Z,30.02
2022-10-12T21:42:58.123Z,43.33
2022-10-12T21:45:00.679Z,67.47
2022-10-12T21:47:04.937Z,120.45
2022-10-12T21:49:08.343Z,119.68
2022-10-12T21:51:10.994Z,98.45
2022-10-12T21:53:14.261Z,74.60
2022-10-12T21:55:17.160Z,70.88
2022-10-12T21:57:19.759Z,72.22
2022-10-12T21:59:22.285Z,61.20
2022-10-12T22:01:26.995Z,46.33
2022-10-12T22:03:30.991Z,60.60
2022-10-12T22:05:39.374Z,69.78
2022-10-12T22:07:42.634Z,65.45
2022-10-12T22:09:45.303Z,87.63
2022-10-12T22:11:48.119Z,81.25
2022-10-12T22:13:51.127Z,88.63
2022-10-12T22:16:03.736Z,71.15
2022-10-12T22:18:06.497Z,59.95
2022-10-12T22:20:12.265Z,63.20
2022-10-12T22:22:15.002Z,51.47
2022-10-12T22:24:18.378Z,47.20
2022-10-12T22:26:22.568Z,39.25
2022-10-12T22:28:25.315Z,29.52
2022-10-12T22:30:27.982Z,34.38
2022-10-12T22:32:30.573Z,44.95
2022-10-12T22:34:33.222Z,45.03
2022-10-12T22:36:39.260Z,42.45
2022-10-12T22:38:42.041Z,34.97
2022-10-12T22:40:44.573Z,39.58
2022-10-12T22:42:47.152Z,31.50
2022-10-12T22:44:49.699Z,34.03
2022-10-12T22:46:52.297Z,31.85
2022-10-12T22:48:55.302Z,30.40
2022-10-12T22:50:57.977Z,31.70
2022-10-12T22:53:01.952Z,42.70
2022-10-12T22:55:04.817Z,29.67
2022-10-12T22:57:07.448Z,27.77
2022-10-12T22:59:14.171Z,36.60
2022-10-12T23:01:18.482Z,29.88
2022-10-12T23:03:21.077Z,24.60
2022-10-12T23:05:23.962Z,25.85
2022-10-12T23:07:26.505Z,30.60
2022-10-12T23:09:30.388Z,27.40
2022-10-12T23:11:33.019Z,23.10
2022-10-12T23:13:36.497Z,27.83
2022-10-12T23:15:39.068Z,31.60
2022-10-12T23:17:41.627Z,33.60
2022-10-12T23:19:44.243Z,23.58
2022-10-12T23:21:48.119Z,21.65
2022-10-12T23:23:50.778Z,23.50
2022-10-12T23:26:00.829Z,19.55
2022-10-12T23:28:03.400Z,28.90
2022-10-12T23:30:06.981Z,27.33
2022-10-12T23:32:09.564Z,28.08
2022-10-12T23:34:12.272Z,28.38
2022-10-12T23:36:17.067Z,37.17
2022-10-12T23:38:19.701Z,26.85
2022-10-12T23:40:22.259Z,28.45
2022-10-12T23:42:26.199Z,28.08
2022-10-12T23:44:28.802Z,25.80
2022-10-12T23:46:31.508Z,28.40
2022-10-12T23:48:34.809Z,28.00
2022-10-12T23:50:37.489Z,29.75
2022-10-12T23:52:40.081Z,32.97
2022-10-12T23:54:42.650Z,31.70
2022-10-12T23:56:45.248Z,35.35
2022-10-12T23:58:49.184Z,24.65
